createdAt,value
2022-09-10T00:01:32.210Z,100.00
2022-09-10T00:04:00.514Z,100.00
2022-09-10T00:06:28.206Z,100.00
2022-09-10T00:08:57.922Z,100.00
2022-09-10T00:11:32.073Z,100.00
2022-09-10T00:14:00.330Z,100.00
2022-09-10T00:16:27.806Z,100.00
2022-09-10T00:18:54.831Z,100.00
2022-09-10T00:21:21.434Z,100.00
2022-09-10T00:23:48.817Z,100.00
2022-09-10T00:26:24.405Z,100.00
2022-09-10T00:28:52.676Z,100.00
2022-09-10T00:31:19.893Z,100.00
2022-09-10T00:33:46.507Z,100.00
2022-09-10T00:36:21.796Z,100.00
2022-09-10T00:38:50.543Z,100.00
2022-09-10T00:41:18.494Z,100.00
2022-09-10T00:43:58.503Z,100.00
2022-09-10T00:46:41.721Z,100.00
2022-09-10T00:49:20.393Z,100.00
2022-09-10T00:51:50.080Z,100.00
2022-09-10T00:54:20.442Z,100.00
2022-09-10T00:56:48.005Z,100.00
2022-09-10T00:59:18.990Z,100.00
2022-09-10T01:01:46.149Z,100.00
2022-09-10T01:04:12.852Z,100.00
2022-09-10T01:06:40.941Z,100.00
2022-09-10T01:09:09.059Z,100.00
2022-09-10T01:11:44.300Z,100.00
2022-09-10T01:14:16.899Z,100.00
2022-09-10T01:16:57.599Z,100.00
2022-09-10T01:19:57.206Z,100.00
2022-09-10T01:22:57.583Z,100.00
2022-09-10T01:25:45.709Z,100.00
2022-09-10T01:28:23.255Z,100.00
2022-09-10T01:30:56.871Z,100.00
2022-09-10T01:33:31.057Z,100.00
2022-09-10T01:36:02.027Z,100.00
2022-09-10T01:38:38.481Z,100.00
2022-09-10T01:41:05.672Z,100.00
2022-09-10T01:43:32.645Z,100.00
2022-09-10T01:46:29.977Z,100.00
2022-09-10T01:49:31.339Z,100.00
2022-09-10T01:52:09.473Z,100.00
2022-09-10T01:54:56.783Z,100.00
2022-09-10T01:57:45.044Z,100.00
2022-09-10T02:00:14.809Z,100.00
2022-09-10T02:02:57.790Z,100.00
2022-09-10T02:05:26.845Z,100.00
2022-09-10T02:07:58.611Z,100.00
2022-09-10T02:10:25.520Z,100.00
2022-09-10T02:12:52.163Z,100.00
2022-09-10T02:15:21.305Z,100.00
2022-09-10T02:17:49.540Z,100.00
2022-09-10T02:20:16.430Z,100.00
2022-09-10T02:22:49.499Z,100.00
2022-09-10T02:25:16.671Z,100.00
2022-09-10T02:27:44.308Z,100.00
2022-09-10T02:30:12.043Z,100.00
2022-09-10T02:32:38.700Z,100.00
2022-09-10T02:35:05.703Z,100.00
2022-09-10T02:37:32.271Z,100.00
2022-09-10T02:39:59.444Z,100.00
2022-09-10T02:42:26.405Z,100.00
2022-09-10T02:44:53.937Z,100.00
2022-09-10T02:47:20.569Z,100.00
2022-09-10T02:49:47.145Z,100.00
2022-09-10T02:52:13.766Z,100.00
2022-09-10T02:54:40.388Z,100.00
2022-09-10T02:57:07.763Z,100.00
2022-09-10T02:59:34.374Z,100.00
2022-09-10T03:02:01.019Z,100.00
2022-09-10T03:04:27.546Z,100.00
2022-09-10T03:06:54.970Z,100.00
2022-09-10T03:09:24.496Z,100.00
2022-09-10T03:11:51.912Z,100.00
2022-09-10T03:14:22.232Z,100.00
2022-09-10T03:16:49.234Z,100.00
2022-09-10T03:19:16.460Z,100.00
2022-09-10T03:21:43.109Z,100.00
2022-09-10T03:24:12.660Z,100.00
2022-09-10T03:26:41.868Z,100.00
2022-09-10T03:29:08.363Z,100.00
2022-09-10T03:31:36.113Z,100.00
2022-09-10T03:34:03.798Z,100.00
2022-09-10T03:36:33.492Z,100.00
2022-09-10T03:39:00.487Z,100.00
2022-09-10T03:41:28.588Z,100.00
2022-09-10T03:43:55.823Z,100.00
2022-09-10T03:46:22.851Z,100.00
2022-09-10T03:48:54.642Z,100.00
2022-09-10T03:51:21.824Z,100.00
2022-09-10T03:53:48.364Z,100.00
2022-09-10T03:56:15.555Z,100.00
2022-09-10T03:58:43.129Z,100.00
2022-09-10T04:01:09.708Z,100.00
2022-09-10T04:03:36.375Z,100.00
2022-09-10T04:06:02.959Z,100.00
2022-09-10T04:08:29.534Z,100.00
2022-09-10T04:11:01.859Z,100.00
2022-09-10T04:13:28.379Z,100.00
2022-09-10T04:15:55.790Z,100.00
2022-09-10T04:18:22.339Z,100.00
2022-09-10T04:20:49.401Z,100.00
2022-09-10T04:23:16.647Z,100.00
2022-09-10T04:25:43.223Z,100.00
2022-09-10T04:28:09.851Z,100.00
2022-09-10T04:30:36.386Z,100.00
2022-09-10T04:33:02.969Z,100.00
2022-09-10T04:35:29.524Z,100.00
2022-09-10T04:37:56.043Z,100.00
2022-09-10T04:40:22.608Z,100.00
2022-09-10T04:42:49.168Z,100.00
2022-09-10T04:45:15.731Z,100.00
2022-09-10T04:47:42.249Z,100.00
2022-09-10T04:50:09.300Z,100.00
2022-09-10T04:52:36.234Z,100.00
2022-09-10T04:55:02.894Z,100.00
2022-09-10T04:57:29.611Z,100.00
2022-09-10T04:59:57.138Z,100.00
2022-09-10T05:02:23.691Z,100.00
2022-09-10T05:04:50.857Z,100.00
2022-09-10T05:07:17.483Z,100.00
2022-09-10T05:09:44.103Z,100.00
2022-09-10T05:12:10.676Z,100.00
2022-09-10T05:14:38.071Z,100.00
2022-09-10T05:17:05.720Z,100.00
2022-09-10T05:19:32.242Z,100.00
2022-09-10T05:21:58.883Z,100.00
2022-09-10T05:24:25.402Z,100.00
2022-09-10T05:26:51.950Z,100.00
2022-09-10T05:29:19.150Z,100.00
2022-09-10T05:31:45.783Z,100.00
2022-09-10T05:34:12.296Z,100.00
2022-09-10T05:36:38.909Z,100.00
2022-09-10T05:39:05.562Z,100.00
2022-09-10T05:41:32.816Z,100.00
2022-09-10T05:43:59.998Z,100.00
2022-09-10T05:46:27.469Z,100.00
2022-09-10T05:48:54.299Z,100.00
2022-09-10T05:51:21.279Z,100.00
2022-09-10T05:53:48.143Z,100.00
2022-09-10T05:56:14.828Z,100.00
2022-09-10T05:58:41.394Z,100.00
2022-09-10T06:01:08.002Z,100.00
2022-09-10T06:03:34.805Z,100.00
2022-09-10T06:06:01.453Z,100.00
2022-09-10T06:08:28.019Z,100.00
2022-09-10T06:10:57.175Z,100.00
2022-09-10T06:13:24.701Z,100.00
2022-09-10T06:15:51.919Z,100.00
2022-09-10T06:18:18.949Z,100.00
2022-09-10T06:20:47.764Z,100.00
2022-09-10T06:23:18.090Z,100.00
2022-09-10T06:25:44.777Z,100.00
2022-09-10T06:28:12.762Z,100.00
2022-09-10T06:30:39.597Z,100.00
2022-09-10T06:33:06.156Z,100.00
2022-09-10T06:35:33.457Z,100.00
2022-09-10T06:38:00.272Z,100.00
2022-09-10T06:40:27.935Z,100.00
2022-09-10T06:42:54.976Z,100.00
2022-09-10T06:45:21.470Z,100.00
2022-09-10T06:48:37.141Z,100.00
2022-09-10T06:50:35.524Z,100.00
2022-09-10T06:53:02.167Z,100.00
2022-09-10T06:55:28.725Z,100.00
2022-09-10T06:57:55.207Z,100.00
2022-09-10T07:00:22.286Z,100.00
2022-09-10T07:02:50.642Z,100.00
2022-09-10T07:05:17.141Z,100.00
2022-09-10T07:07:43.749Z,100.00
2022-09-10T07:10:10.235Z,100.00
2022-09-10T07:12:36.761Z,100.00
2022-09-10T07:15:03.396Z,100.00
2022-09-10T07:17:32.002Z,100.00
2022-09-10T07:19:58.701Z,100.00
2022-09-10T07:22:25.227Z,100.00
2022-09-10T07:24:51.805Z,100.00
2022-09-10T07:27:18.384Z,100.00
2022-09-10T07:29:44.919Z,100.00
2022-09-10T07:32:13.457Z,100.00
2022-09-10T07:34:40.365Z,100.00
2022-09-10T07:37:07.519Z,100.00
2022-09-10T07:39:34.090Z,100.00
2022-09-10T07:42:00.714Z,100.00
2022-09-10T07:44:27.325Z,100.00
2022-09-10T07:46:53.995Z,100.00
2022-09-10T07:49:20.847Z,100.00
2022-09-10T07:51:47.419Z,100.00
2022-09-10T07:54:17.169Z,100.00
2022-09-10T07:56:44.210Z,100.00
2022-09-10T07:59:11.626Z,100.00
2022-09-10T08:01:38.188Z,100.00
2022-09-10T08:04:06.273Z,100.00
2022-09-10T08:06:34.060Z,100.00
2022-09-10T08:09:00.548Z,100.00
2022-09-10T08:11:27.141Z,100.00
2022-09-10T08:13:54.571Z,100.00
2022-09-10T08:16:23.515Z,100.00
2022-09-10T08:18:53.468Z,100.00
2022-09-10T08:21:20.520Z,100.00
2022-09-10T08:23:51.861Z,100.00
2022-09-10T08:26:18.757Z,100.00
2022-09-10T08:28:45.513Z,100.00
2022-09-10T08:31:12.922Z,100.00
2022-09-10T08:33:40.312Z,100.00
2022-09-10T08:36:10.675Z,100.00
2022-09-10T08:38:39.964Z,100.00
2022-09-10T08:41:35.745Z,100.00
2022-09-10T08:44:16.384Z,100.00
2022-09-10T08:46:50.964Z,100.00
2022-09-10T08:49:26.314Z,100.00
2022-09-10T08:52:14.157Z,100.00
2022-09-10T08:54:49.084Z,99.44
2022-09-10T08:57:56.304Z,100.00
2022-09-10T09:00:34.186Z,100.00
2022-09-10T09:03:32.925Z,99.48
2022-09-10T09:06:05.679Z,99.31
2022-09-10T09:08:41.336Z,98.97
2022-09-10T09:11:22.902Z,97.76
2022-09-10T09:14:26.480Z,97.27
2022-09-10T09:17:20.530Z,97.13
2022-09-10T09:20:04.725Z,98.07
2022-09-10T09:22:42.044Z,97.76
2022-09-10T09:25:14.790Z,98.01
2022-09-10T09:27:44.225Z,97.66
2022-09-10T09:30:23.180Z,99.71
2022-09-10T09:32:50.270Z,99.72
2022-09-10T09:35:19.945Z,99.60
2022-09-10T09:37:50.215Z,99.03
2022-09-10T09:40:34.173Z,98.29
2022-09-10T09:43:13.135Z,97.54
2022-09-10T09:45:44.553Z,97.86
2022-09-10T09:48:16.890Z,95.92
2022-09-10T09:50:46.834Z,96.39
2022-09-10T09:53:34.110Z,95.34
2022-09-10T09:56:03.405Z,95.10
2022-09-10T09:58:32.282Z,93.40
2022-09-10T10:01:04.974Z,93.82
2022-09-10T10:03:35.715Z,94.54
2022-09-10T10:06:08.513Z,92.81
2022-09-10T10:08:44.196Z,92.94
2022-09-10T10:11:17.752Z,93.10
2022-09-10T10:13:46.485Z,92.56
2022-09-10T10:16:22.613Z,91.68
2022-09-10T10:18:50.139Z,91.28
2022-09-10T10:21:31.694Z,88.96
2022-09-10T10:23:58.367Z,90.13
2022-09-10T10:26:33.662Z,90.14
2022-09-10T10:29:06.311Z,89.19
2022-09-10T10:31:44.498Z,88.03
2022-09-10T10:34:21.488Z,88.67
2022-09-10T10:37:06.672Z,89.03
2022-09-10T10:39:33.140Z,89.08
2022-09-10T10:42:04.391Z,88.48
2022-09-10T10:44:36.772Z,87.09
2022-09-10T10:47:28.093Z,86.45
2022-09-10T10:50:09.024Z,86.95
2022-09-10T10:52:57.328Z,86.59
2022-09-10T10:55:31.846Z,86.06
2022-09-10T10:58:35.930Z,85.10
2022-09-10T11:01:18.248Z,83.71
2022-09-10T11:03:52.900Z,84.90
2022-09-10T11:06:24.611Z,83.33
2022-09-10T11:08:57.559Z,82.13
2022-09-10T11:12:04.699Z,82.21
2022-09-10T11:14:56.176Z,83.94
2022-09-10T11:17:34.325Z,83.20
2022-09-10T11:20:31.713Z,83.32
2022-09-10T11:22:58.171Z,83.51
2022-09-10T11:25:27.950Z,82.93
2022-09-10T11:28:16.344Z,83.92
2022-09-10T11:30:54.339Z,83.73
2022-09-10T11:33:30.926Z,86.29
2022-09-10T11:36:08.836Z,87.12
2022-09-10T11:38:53.049Z,85.79
2022-09-10T11:41:24.164Z,82.73
2022-09-10T11:44:08.899Z,85.44
2022-09-10T11:46:40.787Z,83.87
2022-09-10T11:49:23.047Z,84.27
2022-09-10T11:51:50.632Z,86.20
2022-09-10T11:54:25.661Z,88.94
2022-09-10T11:56:52.959Z,88.79
2022-09-10T11:59:42.506Z,85.63
2022-09-10T12:02:27.549Z,84.90
2022-09-10T12:05:16.166Z,85.04
2022-09-10T12:08:20.574Z,86.94
2022-09-10T12:11:19.786Z,89.01
2022-09-10T12:13:49.504Z,87.46
2022-09-10T12:16:26.014Z,86.95
2022-09-10T12:18:55.779Z,86.27
2022-09-10T12:21:37.218Z,86.43
2022-09-10T12:24:21.535Z,86.02
2022-09-10T12:26:48.644Z,86.62
2022-09-10T12:29:40.760Z,88.52
2022-09-10T12:32:19.255Z,88.66
2022-09-10T12:35:06.308Z,88.34
2022-09-10T12:37:33.011Z,88.72
2022-09-10T12:40:38.023Z,89.94
2022-09-10T12:43:43.536Z,89.57
2022-09-10T12:46:10.065Z,89.12
2022-09-10T12:48:40.131Z,89.48
2022-09-10T12:51:25.128Z,88.49
2022-09-10T12:54:04.002Z,88.02
2022-09-10T12:56:48.967Z,86.83
2022-09-10T12:59:26.217Z,85.51
2022-09-10T13:01:53.300Z,85.26
2022-09-10T13:04:29.265Z,84.14
2022-09-10T13:07:02.455Z,85.38
2022-09-10T13:09:33.601Z,85.72
2022-09-10T13:12:18.235Z,86.55
2022-09-10T13:14:49.815Z,88.08
2022-09-10T13:17:41.239Z,88.39
2022-09-10T13:20:22.624Z,88.89
2022-09-10T13:23:21.422Z,89.50
2022-09-10T13:25:50.669Z,89.99
2022-09-10T13:28:29.859Z,90.89
2022-09-10T13:31:08.833Z,90.92
2022-09-10T13:33:49.197Z,90.12
2022-09-10T13:36:49.697Z,89.60
2022-09-10T13:39:51.227Z,87.87
2022-09-10T13:42:48.781Z,87.77
2022-09-10T13:45:43.042Z,87.66
2022-09-10T13:48:17.510Z,91.27
2022-09-10T13:51:15.673Z,91.57
2022-09-10T13:53:46.950Z,91.50
2022-09-10T13:56:20.140Z,89.44
2022-09-10T13:58:54.403Z,88.79
2022-09-10T14:01:55.193Z,89.52
2022-09-10T14:04:35.642Z,88.17
2022-09-10T14:07:16.581Z,87.37
2022-09-10T14:09:46.335Z,86.31
2022-09-10T14:12:14.107Z,82.03
2022-09-10T14:14:45.020Z,85.31
2022-09-10T14:17:43.411Z,84.51
2022-09-10T14:20:26.982Z,84.00
2022-09-10T14:23:17.013Z,84.51
2022-09-10T14:25:45.549Z,79.66
2022-09-10T14:28:18.071Z,77.81
2022-09-10T14:30:48.943Z,80.97
2022-09-10T14:33:36.144Z,80.22
2022-09-10T14:36:28.229Z,80.11
2022-09-10T14:39:15.175Z,81.23
2022-09-10T14:41:42.092Z,79.30
2022-09-10T14:44:24.047Z,79.82
2022-09-10T14:47:12.847Z,80.66
2022-09-10T14:49:47.472Z,79.45
2022-09-10T14:52:14.678Z,81.79
2022-09-10T14:54:41.854Z,84.39
2022-09-10T14:57:15.959Z,87.41
2022-09-10T14:59:46.587Z,90.81
2022-09-10T15:02:23.529Z,89.90
2022-09-10T15:04:50.618Z,91.75
2022-09-10T15:07:17.160Z,90.73
2022-09-10T15:09:43.838Z,90.55
2022-09-10T15:12:22.669Z,90.57
2022-09-10T15:14:49.568Z,90.95
2022-09-10T15:17:17.622Z,89.05
2022-09-10T15:19:45.185Z,87.93
2022-09-10T15:22:26.699Z,88.08
2022-09-10T15:25:11.333Z,88.65
2022-09-10T15:27:38.525Z,89.18
2022-09-10T15:30:06.240Z,90.17
2022-09-10T15:32:32.742Z,90.26
2022-09-10T15:34:59.395Z,88.46
2022-09-10T15:37:26.085Z,87.59
2022-09-10T15:39:53.256Z,87.15
2022-09-10T15:42:19.934Z,85.95
2022-09-10T15:44:46.492Z,88.16
2022-09-10T15:47:13.004Z,88.79
2022-09-10T15:49:39.611Z,89.80
2022-09-10T15:52:06.117Z,90.39
2022-09-10T15:54:33.988Z,89.32
2022-09-10T15:57:01.159Z,88.60
2022-09-10T15:59:28.457Z,88.52
2022-09-10T16:01:55.076Z,87.75
2022-09-10T16:04:21.697Z,88.25
2022-09-10T16:06:48.242Z,89.77
2022-09-10T16:09:14.891Z,86.11
2022-09-10T16:11:42.488Z,83.72
2022-09-10T16:14:12.676Z,82.78
2022-09-10T16:16:41.020Z,84.13
2022-09-10T16:19:07.905Z,84.97
2022-09-10T16:21:37.018Z,85.54
2022-09-10T16:24:05.095Z,86.13
2022-09-10T16:26:35.087Z,87.92
2022-09-10T16:29:06.263Z,88.06
2022-09-10T16:31:37.134Z,88.09
2022-09-10T16:34:05.712Z,87.05
2022-09-10T16:36:34.106Z,87.58
2022-09-10T16:39:01.736Z,88.44
2022-09-10T16:41:28.975Z,89.06
2022-09-10T16:43:59.319Z,90.34
2022-09-10T16:46:27.405Z,90.34
2022-09-10T16:48:54.980Z,90.32
2022-09-10T16:51:24.316Z,90.78
2022-09-10T16:53:57.909Z,88.51
2022-09-10T16:56:25.776Z,88.97
2022-09-10T16:58:52.925Z,87.72
2022-09-10T17:01:21.423Z,87.72
2022-09-10T17:03:52.428Z,88.24
2022-09-10T17:06:24.858Z,89.86
2022-09-10T17:08:54.000Z,89.86
2022-09-10T17:11:21.208Z,91.34
2022-09-10T17:13:48.176Z,92.12
2022-09-10T17:16:20.940Z,92.74
2022-09-10T17:18:54.154Z,93.47
2022-09-10T17:21:20.827Z,94.59
2022-09-10T17:23:47.459Z,95.75
2022-09-10T17:26:14.062Z,97.80
2022-09-10T17:28:40.797Z,98.15
2022-09-10T17:31:07.450Z,99.47
2022-09-10T17:33:34.090Z,100.00
2022-09-10T17:36:03.398Z,100.00
2022-09-10T17:38:33.265Z,100.00
2022-09-10T17:41:02.523Z,100.00
2022-09-10T17:43:33.931Z,100.00
2022-09-10T17:46:05.894Z,100.00
2022-09-10T17:48:34.578Z,100.00
2022-09-10T17:51:01.963Z,100.00
2022-09-10T17:53:28.882Z,100.00
2022-09-10T17:56:01.246Z,100.00
2022-09-10T17:58:27.955Z,100.00
2022-09-10T18:00:58.719Z,100.00
2022-09-10T18:03:25.383Z,100.00
2022-09-10T18:05:51.980Z,100.00
2022-09-10T18:08:19.791Z,100.00
2022-09-10T18:10:46.435Z,100.00
2022-09-10T18:13:14.236Z,100.00
2022-09-10T18:15:46.432Z,100.00
2022-09-10T18:18:12.989Z,100.00
2022-09-10T18:20:43.254Z,100.00
2022-09-10T18:23:09.815Z,100.00
2022-09-10T18:25:38.924Z,100.00
2022-09-10T18:28:05.629Z,100.00
2022-09-10T18:30:32.151Z,100.00
2022-09-10T18:32:58.793Z,100.00
2022-09-10T18:35:26.128Z,100.00
2022-09-10T18:37:52.603Z,100.00
2022-09-10T18:40:19.692Z,100.00
2022-09-10T18:42:47.785Z,100.00
2022-09-10T18:45:14.593Z,100.00
2022-09-10T18:47:44.993Z,100.00
2022-09-10T18:50:13.372Z,100.00
2022-09-10T18:52:40.126Z,100.00
2022-09-10T18:55:07.194Z,100.00
2022-09-10T18:57:34.134Z,100.00
2022-09-10T19:00:01.139Z,100.00
2022-09-10T19:02:27.705Z,100.00
2022-09-10T19:05:10.869Z,100.00
2022-09-10T19:07:38.257Z,100.00
2022-09-10T19:10:07.174Z,100.00
2022-09-10T19:12:33.916Z,100.00
2022-09-10T19:15:00.528Z,100.00
2022-09-10T19:17:27.214Z,100.00
2022-09-10T19:19:54.252Z,100.00
2022-09-10T19:22:22.666Z,100.00
2022-09-10T19:24:55.003Z,100.00
2022-09-10T19:27:23.433Z,100.00
2022-09-10T19:29:50.343Z,100.00
2022-09-10T19:32:20.166Z,100.00
2022-09-10T19:34:50.716Z,100.00
2022-09-10T19:37:17.500Z,100.00
2022-09-10T19:39:44.684Z,100.00
2022-09-10T19:42:12.792Z,100.00
2022-09-10T19:44:39.423Z,100.00
2022-09-10T19:47:06.565Z,100.00
2022-09-10T19:49:34.693Z,100.00
2022-09-10T19:52:01.958Z,100.00
2022-09-10T19:54:30.740Z,100.00
2022-09-10T19:56:58.006Z,100.00
2022-09-10T19:59:24.711Z,100.00
2022-09-10T20:01:51.304Z,100.00
2022-09-10T20:04:18.498Z,100.00
2022-09-10T20:06:47.628Z,100.00
2022-09-10T20:09:14.904Z,100.00
2022-09-10T20:11:42.161Z,100.00
2022-09-10T20:14:13.317Z,100.00
2022-09-10T20:16:45.338Z,100.00
2022-09-10T20:19:14.759Z,100.00
2022-09-10T20:21:42.459Z,100.00
2022-09-10T20:24:10.121Z,100.00
2022-09-10T20:26:38.450Z,100.00
2022-09-10T20:29:14.123Z,100.00
2022-09-10T20:31:43.412Z,100.00
2022-09-10T20:34:18.366Z,100.00
2022-09-10T20:36:45.347Z,100.00
2022-09-10T20:39:14.705Z,100.00
2022-09-10T20:41:42.294Z,100.00
2022-09-10T20:44:12.990Z,100.00
2022-09-10T20:46:41.509Z,100.00
2022-09-10T20:49:10.717Z,100.00
2022-09-10T20:51:41.861Z,100.00
2022-09-10T20:54:11.810Z,100.00
2022-09-10T20:56:38.644Z,100.00
2022-09-10T20:59:05.169Z,100.00
2022-09-10T21:01:31.926Z,100.00
2022-09-10T21:04:00.446Z,100.00
2022-09-10T21:06:30.119Z,100.00
2022-09-10T21:08:56.984Z,100.00
2022-09-10T21:11:25.464Z,100.00
2022-09-10T21:13:54.074Z,100.00
2022-09-10T21:16:23.562Z,100.00
2022-09-10T21:18:54.714Z,100.00
2022-09-10T21:21:25.347Z,100.00
2022-09-10T21:23:54.522Z,100.00
2022-09-10T21:26:23.600Z,100.00
2022-09-10T21:28:53.055Z,100.00
2022-09-10T21:31:19.617Z,100.00
2022-09-10T21:33:46.270Z,100.00
2022-09-10T21:36:20.405Z,100.00
2022-09-10T21:38:54.400Z,100.00
2022-09-10T21:41:33.342Z,100.00
2022-09-10T21:44:01.728Z,100.00
2022-09-10T21:46:29.611Z,100.00
2022-09-10T21:48:56.347Z,100.00
2022-09-10T21:51:23.833Z,100.00
2022-09-10T21:53:55.034Z,100.00
2022-09-10T21:56:23.448Z,100.00
2022-09-10T21:58:50.009Z,100.00
2022-09-10T22:01:20.037Z,100.00
2022-09-10T22:03:47.954Z,100.00
2022-09-10T22:06:18.645Z,100.00
2022-09-10T22:08:48.717Z,100.00
2022-09-10T22:11:16.907Z,100.00
2022-09-10T22:13:44.898Z,100.00
2022-09-10T22:16:12.756Z,100.00
2022-09-10T22:18:40.007Z,100.00
2022-09-10T22:21:07.243Z,100.00
2022-09-10T22:23:38.140Z,100.00
2022-09-10T22:26:15.439Z,100.00
2022-09-10T22:28:43.449Z,100.00
2022-09-10T22:31:14.333Z,100.00
2022-09-10T22:33:42.954Z,100.00
2022-09-10T22:36:31.578Z,100.00
2022-09-10T22:39:04.744Z,100.00
2022-09-10T22:41:34.142Z,100.00
2022-09-10T22:44:01.144Z,100.00
2022-09-10T22:46:28.469Z,100.00
2022-09-10T22:48:56.277Z,100.00
2022-09-10T22:51:25.887Z,100.00
2022-09-10T22:53:54.111Z,100.00
2022-09-10T22:56:22.235Z,100.00
2022-09-10T22:58:52.604Z,100.00
2022-09-10T23:01:21.306Z,100.00
2022-09-10T23:03:48.563Z,100.00
2022-09-10T23:06:18.901Z,100.00
2022-09-10T23:08:48.767Z,100.00
2022-09-10T23:11:17.639Z,100.00
2022-09-10T23:13:46.382Z,100.00
2022-09-10T23:16:19.135Z,100.00
2022-09-10T23:18:51.988Z,100.00
2022-09-10T23:21:19.681Z,100.00
2022-09-10T23:23:48.330Z,100.00
2022-09-10T23:26:17.307Z,100.00
2022-09-10T23:28:44.877Z,100.00
2022-09-10T23:31:14.981Z,100.00
2022-09-10T23:33:54.887Z,100.00
2022-09-10T23:36:22.183Z,100.00
2022-09-10T23:38:48.989Z,100.00
2022-09-10T23:41:18.794Z,100.00
2022-09-10T23:43:45.529Z,100.00
2022-09-10T23:46:13.321Z,100.00
2022-09-10T23:48:42.311Z,100.00
2022-09-10T23:51:12.080Z,100.00
2022-09-10T23:53:39.938Z,100.00
2022-09-10T23:56:07.045Z,100.00
2022-09-10T23:58:33.567Z,100.00
